Time,TemperatureF,DewpointF,PressureIn,WindDirection,WindDirectionDegrees,WindSpeedMPH,WindSpeedGustMPH,Humidity,HourlyPrecipIn,Conditions,Clouds,dailyrainin,SoftwareType,DateUTC
2013-07-08 00:01:00,76.0,70.8,30.03,West,276,0.0,0.0,84,0.00,,CLR,0.00,VWS V14.01,2013-07-08 04:01:00,
2013-07-08 00:06:00,75.9,71.1,30.02,West,276,0.0,0.0,85,0.00,,CLR,0.00,VWS V14.01,2013-07-08 04:06:00,
2013-07-08 00:11:00,75.8,71.0,30.03,West,276,0.0,2.0,85,0.00,,CLR,0.00,VWS V14.01,2013-07-08 04:11:00,
2013-07-08 00:16:00,75.8,71.0,30.03,West,276,0.0,0.0,85,0.00,,CLR,0.00,VWS V14.01,2013-07-08 04:16:00,
2013-07-08 00:21:00,75.6,70.8,30.03,West,276,0.0,0.0,85,0.00,,CLR,0.00,VWS V14.01,2013-07-08 04:21:00,
2013-07-08 00:26:00,75.5,71.0,30.03,WSW,240,4.0,5.0,86,0.00,,CLR,0.00,VWS V14.01,2013-07-08 04:26:00,
2013-07-08 00:31:00,75.5,71.0,30.03,WSW,240,0.0,2.0,86,0.00,,CLR,0.00,VWS V14.01,2013-07-08 04:31:00,
2013-07-08 00:36:00,75.6,71.1,30.03,WSW,240,0.0,0.0,86,0.00,,CLR,0.00,VWS V14.01,2013-07-08 04:36:00,
2013-07-08 00:41:00,75.6,71.5,30.03,WSW,240,0.0,0.0,87,0.00,,CLR,0.00,VWS V14.01,2013-07-08 04:41:00,
2013-07-08 00:46:00,75.5,71.4,30.03,WSW,239,0.0,3.0,87,0.00,,CLR,0.00,VWS V14.01,2013-07-08 04:46:00,
2013-07-08 00:51:00,75.4,70.9,30.03,SSW,213,0.0,0.0,86,0.00,,CLR,0.00,VWS V14.01,2013-07-08 04:51:00,
2013-07-08 00:56:00,75.4,71.3,30.02,SSW,213,0.0,0.0,87,0.00,,CLR,0.00,VWS V14.01,2013-07-08 04:56:00,
2013-07-08 01:01:00,75.4,71.3,30.02,SSW,213,0.0,0.0,87,0.00,,CLR,0.00,VWS V14.01,2013-07-08 05:01:00,
2013-07-08 01:06:00,75.4,71.6,30.03,SSW,213,0.0,0.0,88,0.00,,CLR,0.00,VWS V14.01,2013-07-08 05:06:00,
2013-07-08 01:11:00,75.3,71.5,30.02,SSW,213,0.0,0.0,88,0.00,,CLR,0.00,VWS V14.01,2013-07-08 05:11:00,
2013-07-08 01:16:00,75.2,71.4,30.02,SSW,213,0.0,0.0,88,0.00,,CLR,0.00,VWS V14.01,2013-07-08 05:16:00,
2013-07-08 01:21:00,75.2,71.7,30.02,SSW,213,0.0,1.0,89,0.00,,CLR,0.00,VWS V14.01,2013-07-08 05:21:00,
2013-07-08 01:26:00,75.2,71.7,30.02,SSW,197,0.0,0.0,89,0.00,,CLR,0.00,VWS V14.01,2013-07-08 05:26:00,
2013-07-08 01:31:00,75.3,71.8,30.02,SSW,197,0.0,0.0,89,0.00,,CLR,0.00,VWS V14.01,2013-07-08 05:31:00,
2013-07-08 01:36:00,75.3,71.8,30.02,SSW,197,0.0,2.0,89,0.00,,SCT035,0.00,VWS V14.01,2013-07-08 05:36:00,
2013-07-08 01:41:00,75.3,71.8,30.01,South,186,3.0,5.0,89,0.00,,SCT035,0.00,VWS V14.01,2013-07-08 05:41:00,
2013-07-08 01:46:00,75.4,71.9,30.01,South,186,0.0,0.0,89,0.00,,SCT035,0.00,VWS V14.01,2013-07-08 05:46:00,
2013-07-08 01:51:00,75.6,72.5,30.01,South,169,0.0,4.0,90,0.00,,SCT035,0.00,VWS V14.01,2013-07-08 05:51:00,
2013-07-08 01:56:00,75.7,72.6,30.02,South,169,0.0,2.0,90,0.00,,SCT035,0.00,VWS V14.01,2013-07-08 05:56:00,
2013-07-08 02:01:00,75.8,72.7,30.02,South,176,0.0,4.0,90,0.00,,SCT035,0.00,VWS V14.01,2013-07-08 06:01:00,
2013-07-08 02:06:00,75.8,72.3,30.02,South,176,0.0,0.0,89,0.00,,SCT035,0.00,VWS V14.01,2013-07-08 06:06:00,
2013-07-08 02:11:00,75.9,72.4,30.02,South,176,0.0,0.0,89,0.00,,SCT035,0.00,VWS V14.01,2013-07-08 06:11:00,
2013-07-08 02:16:00,76.0,72.5,30.02,South,176,0.0,1.0,89,0.00,,SCT035,0.00,VWS V14.01,2013-07-08 06:16:00,
2013-07-08 02:21:00,76.0,72.5,30.02,South,176,0.0,0.0,89,0.00,,SCT035,0.00,VWS V14.01,2013-07-08 06:21:00,
2013-07-08 02:27:00,76.1,72.6,30.02,South,176,0.0,0.0,89,0.00,,SCT035,0.00,VWS V14.01,2013-07-08 06:27:00,
2013-07-08 02:32:00,76.1,72.6,30.02,South,176,0.0,0.0,89,0.00,,SCT075,0.00,VWS V14.01,2013-07-08 06:32:00,
2013-07-08 02:37:00,76.1,72.3,30.02,South,180,0.0,0.0,88,0.00,,SCT075,0.00,VWS V14.01,2013-07-08 06:37:00,
2013-07-08 02:42:00,76.2,72.4,30.02,West,271,0.0,0.0,88,0.00,,SCT075,0.00,VWS V14.01,2013-07-08 06:42:00,
2013-07-08 02:47:00,76.2,72.4,30.02,West,271,0.0,2.0,88,0.00,,SCT075,0.00,VWS V14.01,2013-07-08 06:47:00,
2013-07-08 02:52:00,76.3,72.5,30.02,West,271,0.0,0.0,88,0.00,,SCT075,0.00,VWS V14.01,2013-07-08 06:52:00,
2013-07-08 02:57:00,76.2,72.4,30.02,West,271,0.0,0.0,88,0.00,,SCT075,0.00,VWS V14.01,2013-07-08 06:57:00,
2013-07-08 03:02:00,76.2,72.4,30.02,West,271,0.0,0.0,88,0.00,,SCT075,0.00,VWS V14.01,2013-07-08 07:02:00,
2013-07-08 03:07:00,76.1,72.6,30.02,West,272,0.0,0.0,89,0.00,,SCT075,0.00,VWS V14.01,2013-07-08 07:07:00,
2013-07-08 03:12:00,76.0,72.5,30.02,West,272,0.0,0.0,89,0.00,,SCT075,0.00,VWS V14.01,2013-07-08 07:12:00,
2013-07-08 03:17:00,76.0,72.5,30.02,West,272,0.0,0.0,89,0.00,,SCT075,0.00,VWS V14.01,2013-07-08 07:17:00,
2013-07-08 03:22:00,75.9,72.4,30.01,West,272,0.0,0.0,89,0.00,,SCT075,0.00,VWS V14.01,2013-07-08 07:22:00,
2013-07-08 03:27:00,75.7,72.6,30.02,West,272,0.0,0.0,90,0.00,,SCT075,0.00,VWS V14.01,2013-07-08 07:27:00,
2013-07-08 03:32:00,75.4,72.3,30.02,West,272,0.0,0.0,90,0.00,,SCT033,0.00,VWS V14.01,2013-07-08 07:32:00,
2013-07-08 03:37:00,75.2,72.1,30.03,West,272,0.0,0.0,90,0.00,,SCT033,0.00,VWS V14.01,2013-07-08 07:37:00,
2013-07-08 03:42:00,74.9,72.1,30.04,West,272,0.0,0.0,91,0.00,,SCT033,0.00,VWS V14.01,2013-07-08 07:42:00,
2013-07-08 03:47:00,74.7,72.2,30.03,West,272,0.0,0.0,92,0.00,,SCT033,0.00,VWS V14.01,2013-07-08 07:47:00,
2013-07-08 03:52:00,74.8,72.3,30.03,West,272,0.0,0.0,92,0.00,,SCT033,0.00,VWS V14.01,2013-07-08 07:52:00,
2013-07-08 03:57:00,74.9,72.4,30.03,West,272,0.0,0.0,92,0.00,,SCT033,0.00,VWS V14.01,2013-07-08 07:57:00,
2013-07-08 04:02:00,75.0,72.2,30.03,WNW,288,0.0,3.0,91,0.00,,SCT033,0.00,VWS V14.01,2013-07-08 08:02:00,
2013-07-08 04:07:00,75.2,72.1,30.03,West,268,1.0,3.0,90,0.00,,SCT033,0.00,VWS V14.01,2013-07-08 08:07:00,
2013-07-08 04:12:00,75.4,72.3,30.03,West,269,0.0,0.0,90,0.00,,SCT033,0.00,VWS V14.01,2013-07-08 08:12:00,
2013-07-08 04:17:00,75.5,72.4,30.03,West,269,0.0,0.0,90,0.00,,SCT033,0.00,VWS V14.01,2013-07-08 08:17:00,
2013-07-08 04:22:00,75.7,72.2,30.03,West,268,3.0,3.0,89,0.00,,SCT033,0.00,VWS V14.01,2013-07-08 08:22:00,
2013-07-08 04:27:00,75.8,72.3,30.03,West,261,0.0,0.0,89,0.00,,SCT033,0.00,VWS V14.01,2013-07-08 08:27:00,
2013-07-08 04:32:00,75.8,72.3,30.04,WSW,256,3.0,4.0,89,0.00,,CLR,0.00,VWS V14.01,2013-07-08 08:32:00,
2013-07-08 04:37:00,75.9,72.4,30.04,WNW,290,0.0,5.0,89,0.00,,CLR,0.00,VWS V14.01,2013-07-08 08:37:00,
2013-07-08 04:42:00,75.9,72.4,30.04,WNW,283,5.0,5.0,89,0.00,,CLR,0.00,VWS V14.01,2013-07-08 08:42:00,
2013-07-08 04:47:00,75.8,72.0,30.04,West,264,6.0,6.0,88,0.00,,CLR,0.00,VWS V14.01,2013-07-08 08:47:00,
2013-07-08 04:52:00,75.8,71.7,30.04,West,280,3.0,6.0,87,0.00,,CLR,0.00,VWS V14.01,2013-07-08 08:52:00,
2013-07-08 04:57:00,75.8,71.3,30.03,WSW,252,3.0,6.0,86,0.00,,CLR,0.00,VWS V14.01,2013-07-08 08:57:00,
2013-07-08 05:02:00,75.8,71.3,30.04,WNW,288,7.0,7.0,86,0.00,,CLR,0.00,VWS V14.01,2013-07-08 09:02:00,
2013-07-08 05:07:00,75.7,71.2,30.03,West,259,5.0,10.0,86,0.00,,CLR,0.00,VWS V14.01,2013-07-08 09:07:00,
2013-07-08 05:12:00,75.7,71.2,30.03,West,268,6.0,7.0,86,0.00,,CLR,0.00,VWS V14.01,2013-07-08 09:12:00,
2013-07-08 05:17:00,75.7,71.6,30.03,WSW,250,5.0,7.0,87,0.00,,CLR,0.00,VWS V14.01,2013-07-08 09:17:00,
2013-07-08 05:23:00,75.7,71.6,30.03,West,269,10.0,10.0,87,0.00,,CLR,0.00,VWS V14.01,2013-07-08 09:23:00,
2013-07-08 05:28:00,75.6,71.5,30.03,WSW,244,4.0,8.0,87,0.00,,CLR,0.00,VWS V14.01,2013-07-08 09:28:00,
2013-07-08 05:33:00,75.5,71.4,30.03,West,269,4.0,5.0,87,0.00,,CLR,0.00,VWS V14.01,2013-07-08 09:33:00,
2013-07-08 05:38:00,75.5,71.7,30.04,West,271,4.0,8.0,88,0.00,,CLR,0.00,VWS V14.01,2013-07-08 09:38:00,
2013-07-08 05:43:00,75.4,71.6,30.05,West,264,6.0,8.0,88,0.00,,CLR,0.00,VWS V14.01,2013-07-08 09:43:00,
2013-07-08 05:48:00,75.3,71.5,30.05,West,275,5.0,7.0,88,0.00,,CLR,0.00,VWS V14.01,2013-07-08 09:48:00,
2013-07-08 05:53:00,75.3,71.5,30.04,WSW,258,0.0,5.0,88,0.00,,CLR,0.00,VWS V14.01,2013-07-08 09:53:00,
2013-07-08 05:58:00,75.2,71.7,30.04,West,275,2.0,4.0,89,0.00,,CLR,0.00,VWS V14.01,2013-07-08 09:58:00,
2013-07-08 06:03:00,75.2,71.7,30.04,West,265,3.0,4.0,89,0.00,,CLR,0.00,VWS V14.01,2013-07-08 10:03:00,
2013-07-08 06:08:00,75.1,71.6,30.04,WSW,252,6.0,7.0,89,0.00,,CLR,0.00,VWS V14.01,2013-07-08 10:08:00,
2013-07-08 06:13:00,75.1,71.6,30.04,West,261,4.0,5.0,89,0.00,,CLR,0.00,VWS V14.01,2013-07-08 10:13:00,
2013-07-08 06:18:00,75.1,71.6,30.05,WSW,254,3.0,6.0,89,0.00,,CLR,0.00,VWS V14.01,2013-07-08 10:18:00,
2013-07-08 06:23:00,75.1,72.0,30.05,West,279,5.0,8.0,90,0.00,,CLR,0.00,VWS V14.01,2013-07-08 10:23:00,
2013-07-08 06:28:00,74.9,71.8,30.05,WNW,294,6.0,6.0,90,0.00,,CLR,0.00,VWS V14.01,2013-07-08 10:28:00,
2013-07-08 06:33:00,74.9,71.8,30.04,West,277,4.0,6.0,90,0.00,,CLR,0.00,VWS V14.01,2013-07-08 10:33:00,
2013-07-08 06:38:00,74.8,72.0,30.04,West,267,3.0,5.0,91,0.00,,CLR,0.00,VWS V14.01,2013-07-08 10:38:00,
2013-07-08 06:43:00,74.7,71.9,30.04,West,263,2.0,4.0,91,0.00,,CLR,0.00,VWS V14.01,2013-07-08 10:43:00,
2013-07-08 06:48:00,74.7,72.2,30.05,West,267,2.0,6.0,92,0.00,,CLR,0.00,VWS V14.01,2013-07-08 10:48:00,
2013-07-08 06:53:00,74.6,72.1,30.06,West,261,7.0,7.0,92,0.00,,CLR,0.00,VWS V14.01,2013-07-08 10:53:00,
2013-07-08 06:58:00,74.6,72.1,30.06,WNW,283,0.0,6.0,92,0.00,,CLR,0.00,VWS V14.01,2013-07-08 10:58:00,
2013-07-08 07:03:00,74.6,72.4,30.06,West,275,4.0,4.0,93,0.00,,CLR,0.00,VWS V14.01,2013-07-08 11:03:00,
2013-07-08 07:08:00,74.6,72.4,30.04,WNW,294,0.0,5.0,93,0.00,,CLR,0.00,VWS V14.01,2013-07-08 11:08:00,
2013-07-08 07:13:00,74.7,72.6,30.04,WNW,285,0.0,0.0,93,0.00,,CLR,0.00,VWS V14.01,2013-07-08 11:13:00,
2013-07-08 07:18:00,74.7,72.6,30.05,WSW,258,1.0,4.0,93,0.00,,CLR,0.00,VWS V14.01,2013-07-08 11:18:00,
2013-07-08 07:23:00,74.9,72.7,30.06,WSW,241,0.0,4.0,93,0.00,,CLR,0.00,VWS V14.01,2013-07-08 11:23:00,
2013-07-08 07:28:00,74.9,72.7,30.06,SW,233,3.0,4.0,93,0.00,,CLR,0.00,VWS V14.01,2013-07-08 11:28:00,
2013-07-08 07:33:00,75.1,72.6,30.06,WSW,246,1.0,4.0,92,0.00,,CLR,0.00,VWS V14.01,2013-07-08 11:33:00,
2013-07-08 07:38:00,75.2,72.7,30.07,WSW,239,2.0,4.0,92,0.00,,CLR,0.00,VWS V14.01,2013-07-08 11:38:00,
2013-07-08 07:43:00,75.2,72.7,30.07,WSW,239,0.0,2.0,92,0.00,,CLR,0.00,VWS V14.01,2013-07-08 11:43:00,
2013-07-08 07:48:00,75.3,72.5,30.06,WSW,239,2.0,3.0,91,0.00,,CLR,0.00,VWS V14.01,2013-07-08 11:48:00,
2013-07-08 07:53:00,75.4,72.6,30.06,SW,224,0.0,2.0,91,0.00,,CLR,0.00,VWS V14.01,2013-07-08 11:53:00,
2013-07-08 07:58:00,75.6,72.8,30.06,SW,224,0.0,0.0,91,0.00,,CLR,0.00,VWS V14.01,2013-07-08 11:58:00,
2013-07-08 08:03:00,75.7,72.9,30.06,SW,224,0.0,1.0,91,0.00,,CLR,0.00,VWS V14.01,2013-07-08 12:03:00,
2013-07-08 08:08:00,75.7,72.9,30.06,SW,224,0.0,0.0,91,0.00,,CLR,0.00,VWS V14.01,2013-07-08 12:08:00,
2013-07-08 08:13:00,75.7,72.9,30.07,SW,214,0.0,4.0,91,0.00,,CLR,0.00,VWS V14.01,2013-07-08 12:13:00,
2013-07-08 08:18:00,75.7,72.6,30.07,SW,214,0.0,3.0,90,0.00,,CLR,0.00,VWS V14.01,2013-07-08 12:18:00,
2013-07-08 08:23:00,75.8,72.7,30.08,SSW,200,1.0,5.0,90,0.00,,CLR,0.00,VWS V14.01,2013-07-08 12:23:00,
2013-07-08 08:28:00,75.8,72.7,30.08,WSW,237,3.0,6.0,90,0.00,,CLR,0.00,VWS V14.01,2013-07-08 12:28:00,
2013-07-08 08:33:00,75.9,72.8,30.07,SW,231,2.0,5.0,90,0.00,,BKN120,0.00,VWS V14.01,2013-07-08 12:33:00,
2013-07-08 08:38:00,75.9,72.8,30.07,SW,232,0.0,2.0,90,0.00,,BKN120,0.00,VWS V14.01,2013-07-08 12:38:00,
2013-07-08 08:43:00,76.0,72.9,30.06,West,272,3.0,3.0,90,0.00,,BKN120,0.00,VWS V14.01,2013-07-08 12:43:00,
2013-07-08 08:48:00,76.1,73.0,30.06,WSW,257,3.0,4.0,90,0.00,,BKN120,0.00,VWS V14.01,2013-07-08 12:48:00,
2013-07-08 08:53:00,76.1,72.6,30.06,WSW,258,5.0,6.0,89,0.00,,BKN120,0.00,VWS V14.01,2013-07-08 12:53:00,
2013-07-08 08:58:00,76.2,73.1,30.06,West,259,3.0,5.0,90,0.00,,BKN120,0.00,VWS V14.01,2013-07-08 12:58:00,
2013-07-08 09:03:00,76.3,73.2,30.06,WNW,297,7.0,9.0,90,0.00,,BKN120,0.00,VWS V14.01,2013-07-08 13:03:00,
2013-07-08 09:08:00,76.7,73.6,30.06,West,269,3.0,5.0,90,0.00,,BKN120,0.00,VWS V14.01,2013-07-08 13:08:00,
2013-07-08 09:13:00,77.1,73.6,30.06,WNW,283,7.0,11.0,89,0.00,,BKN120,0.00,VWS V14.01,2013-07-08 13:13:00,
2013-07-08 09:18:00,77.1,73.6,30.06,WSW,241,5.0,6.0,89,0.00,,BKN120,0.00,VWS V14.01,2013-07-08 13:18:00,
2013-07-08 09:23:00,76.9,73.4,30.06,WSW,252,4.0,7.0,89,0.00,,BKN120,0.00,VWS V14.01,2013-07-08 13:23:00,
2013-07-08 09:28:00,76.8,73.0,30.06,WSW,249,4.0,7.0,88,0.00,,BKN120,0.00,VWS V14.01,2013-07-08 13:28:00,
2013-07-08 09:33:00,76.6,73.1,30.07,WSW,254,3.0,5.0,89,0.00,,BKN060,0.00,VWS V14.01,2013-07-08 13:33:00,
2013-07-08 09:38:00,76.4,72.9,30.07,SW,235,6.0,8.0,89,0.00,,BKN060,0.00,VWS V14.01,2013-07-08 13:38:00,
2013-07-08 09:43:00,76.5,73.0,30.07,WSW,237,5.0,8.0,89,0.00,,BKN060,0.00,VWS V14.01,2013-07-08 13:43:00,
2013-07-08 09:48:00,76.7,73.2,30.07,SW,224,3.0,9.0,89,0.00,,BKN060,0.00,VWS V14.01,2013-07-08 13:48:00,
2013-07-08 09:53:00,76.9,73.4,30.08,SW,225,5.0,6.0,89,0.00,,BKN060,0.00,VWS V14.01,2013-07-08 13:53:00,
2013-07-08 09:59:00,77.3,73.8,30.08,SW,231,5.0,10.0,89,0.00,,BKN060,0.00,VWS V14.01,2013-07-08 13:59:00,
2013-07-08 10:04:00,77.8,74.3,30.07,SW,219,4.0,7.0,89,0.00,,BKN060,0.00,VWS V14.01,2013-07-08 14:04:00,
2013-07-08 10:09:00,77.8,74.0,30.07,SW,216,5.0,9.0,88,0.00,,BKN060,0.00,VWS V14.01,2013-07-08 14:09:00,
2013-07-08 10:14:00,77.8,74.0,30.07,WSW,250,4.0,6.0,88,0.00,,BKN060,0.00,VWS V14.01,2013-07-08 14:14:00,
2013-07-08 10:19:00,77.7,73.9,30.07,South,190,2.0,7.0,88,0.00,,BKN060,0.00,VWS V14.01,2013-07-08 14:19:00,
2013-07-08 10:24:00,77.8,74.0,30.07,SW,230,2.0,5.0,88,0.00,,BKN060,0.00,VWS V14.01,2013-07-08 14:24:00,
2013-07-08 10:29:00,77.8,74.0,30.07,WSW,248,5.0,6.0,88,0.00,,BKN060,0.00,VWS V14.01,2013-07-08 14:29:00,
2013-07-08 10:34:00,77.8,73.6,30.07,WSW,255,4.0,6.0,87,0.00,,BKN120,0.00,VWS V14.01,2013-07-08 14:34:00,
2013-07-08 10:39:00,77.7,73.5,30.07,SW,231,7.0,7.0,87,0.00,,BKN120,0.00,VWS V14.01,2013-07-08 14:39:00,
2013-07-08 10:44:00,77.6,73.1,30.07,SW,227,3.0,6.0,86,0.00,,BKN120,0.00,VWS V14.01,2013-07-08 14:44:00,
2013-07-08 10:49:00,77.6,73.4,30.07,WSW,252,4.0,7.0,87,0.00,,BKN120,0.00,VWS V14.01,2013-07-08 14:49:00,
2013-07-08 10:54:00,77.7,73.5,30.07,WSW,238,5.0,10.0,87,0.00,,BKN120,0.00,VWS V14.01,2013-07-08 14:54:00,
2013-07-08 10:59:00,77.7,73.5,30.07,West,263,7.0,10.0,87,0.00,,BKN120,0.00,VWS V14.01,2013-07-08 14:59:00,
2013-07-08 11:04:00,77.7,73.9,30.08,WSW,246,5.0,10.0,88,0.00,,BKN120,0.00,VWS V14.01,2013-07-08 15:04:00,
2013-07-08 11:09:00,77.8,73.6,30.08,SW,229,6.0,7.0,87,0.00,,BKN120,0.00,VWS V14.01,2013-07-08 15:09:00,
2013-07-08 11:14:00,78.2,74.4,30.08,WSW,247,4.0,10.0,88,0.00,,BKN120,0.00,VWS V14.01,2013-07-08 15:14:00,
2013-07-08 11:19:00,78.9,75.4,30.08,SSW,211,3.0,7.0,89,0.00,,BKN120,0.00,VWS V14.01,2013-07-08 15:19:00,
2013-07-08 11:24:00,79.5,75.6,30.07,SW,225,4.0,8.0,88,0.00,,BKN120,0.00,VWS V14.01,2013-07-08 15:24:00,
2013-07-08 11:29:00,80.0,75.4,30.08,SE,140,5.0,10.0,86,0.00,,BKN120,0.00,VWS V14.01,2013-07-08 15:29:00,
2013-07-08 11:34:00,79.9,74.6,30.08,WSW,248,9.0,10.0,84,0.00,,BKN110,0.00,VWS V14.01,2013-07-08 15:34:00,
2013-07-08 11:39:00,79.8,74.5,30.08,WSW,250,7.0,11.0,84,0.00,,BKN110,0.00,VWS V14.01,2013-07-08 15:39:00,
2013-07-08 11:44:00,79.7,74.8,30.07,West,265,5.0,12.0,85,0.00,,BKN110,0.00,VWS V14.01,2013-07-08 15:44:00,
2013-07-08 11:49:00,79.7,74.4,30.07,SW,217,6.0,11.0,84,0.00,,BKN110,0.00,VWS V14.01,2013-07-08 15:49:00,
2013-07-08 11:54:00,79.8,74.5,30.07,WSW,240,3.0,6.0,84,0.00,,BKN110,0.00,VWS V14.01,2013-07-08 15:54:00,
2013-07-08 11:59:00,80.0,74.7,30.07,SW,235,10.0,10.0,84,0.00,,BKN110,0.00,VWS V14.01,2013-07-08 15:59:00,
2013-07-08 12:04:00,80.2,74.6,30.07,SSW,213,6.0,7.0,83,0.00,,BKN110,0.00,VWS V14.01,2013-07-08 16:04:00,
2013-07-08 12:09:00,80.3,74.3,30.07,WSW,252,10.0,10.0,82,0.00,,BKN110,0.00,VWS V14.01,2013-07-08 16:09:00,
2013-07-08 12:14:00,80.3,74.3,30.07,WSW,251,6.0,6.0,82,0.00,,BKN110,0.00,VWS V14.01,2013-07-08 16:14:00,
2013-07-08 12:19:00,80.6,74.2,30.07,WSW,242,4.0,10.0,81,0.00,,BKN110,0.00,VWS V14.01,2013-07-08 16:19:00,
2013-07-08 12:24:00,80.5,74.1,30.07,SW,225,4.0,10.0,81,0.00,,BKN110,0.00,VWS V14.01,2013-07-08 16:24:00,
2013-07-08 12:29:00,80.4,74.8,30.07,WSW,240,7.0,9.0,83,0.00,,BKN110,0.00,VWS V14.01,2013-07-08 16:29:00,
2013-07-08 12:35:00,80.6,75.0,30.07,WSW,242,3.0,9.0,83,0.00,,BKN110,0.00,VWS V14.01,2013-07-08 16:35:00,
2013-07-08 12:40:00,80.8,74.4,30.07,West,264,5.0,7.0,81,0.00,,BKN110,0.00,VWS V14.01,2013-07-08 16:40:00,
2013-07-08 12:45:00,80.9,74.2,30.06,SW,227,5.0,10.0,80,0.00,,BKN110,0.00,VWS V14.01,2013-07-08 16:45:00,
2013-07-08 12:50:00,80.9,74.9,30.06,WSW,241,4.0,8.0,82,0.00,,BKN110,0.00,VWS V14.01,2013-07-08 16:50:00,
2013-07-08 12:55:00,81.2,74.4,30.06,WSW,250,3.0,8.0,80,0.00,,BKN110,0.00,VWS V14.01,2013-07-08 16:55:00,
2013-07-08 13:00:00,81.3,75.7,30.06,South,175,1.0,6.0,83,0.00,,BKN110,0.00,VWS V14.01,2013-07-08 17:00:00,
2013-07-08 13:05:00,81.2,74.8,30.06,SSE,153,3.0,10.0,81,0.00,,BKN110,0.00,VWS V14.01,2013-07-08 17:05:00,
2013-07-08 13:10:00,81.5,75.1,30.06,WSW,248,6.0,9.0,81,0.00,,BKN110,0.00,VWS V14.01,2013-07-08 17:10:00,
2013-07-08 13:15:00,81.6,75.2,30.06,SW,214,5.0,9.0,81,0.00,,BKN110,0.00,VWS V14.01,2013-07-08 17:15:00,
2013-07-08 13:20:00,81.8,75.0,30.05,SSE,163,6.0,10.0,80,0.00,,BKN110,0.00,VWS V14.01,2013-07-08 17:20:00,
2013-07-08 13:25:00,81.8,74.7,30.05,SW,233,5.0,5.0,79,0.00,,BKN110,0.00,VWS V14.01,2013-07-08 17:25:00,
2013-07-08 13:30:00,81.8,74.7,30.05,SSE,164,5.0,7.0,79,0.00,,BKN110,0.00,VWS V14.01,2013-07-08 17:30:00,
2013-07-08 13:35:00,82.1,75.7,30.05,SSW,213,6.0,6.0,81,0.00,,SCT100,0.00,VWS V14.01,2013-07-08 17:35:00,
2013-07-08 13:40:00,82.4,75.2,30.05,SSW,209,5.0,7.0,79,0.00,,SCT100,0.00,VWS V14.01,2013-07-08 17:40:00,
2013-07-08 13:45:00,82.6,75.8,30.05,SSW,209,1.0,6.0,80,0.00,,SCT100,0.00,VWS V14.01,2013-07-08 17:45:00,
2013-07-08 13:50:00,82.6,74.7,30.05,SSW,210,3.0,5.0,77,0.00,,SCT100,0.00,VWS V14.01,2013-07-08 17:50:00,
2013-07-08 13:55:00,82.6,75.4,30.05,SW,230,4.0,7.0,79,0.00,,SCT100,0.00,VWS V14.01,2013-07-08 17:55:00,
2013-07-08 14:00:00,82.7,75.2,30.05,SSW,209,2.0,5.0,78,0.00,,SCT100,0.00,VWS V14.01,2013-07-08 18:00:00,
2013-07-08 14:05:00,83.0,74.7,30.04,WSW,239,3.0,7.0,76,0.00,,SCT100,0.00,VWS V14.01,2013-07-08 18:05:00,
2013-07-08 14:11:00,82.9,74.9,30.04,WSW,248,10.0,10.0,77,0.00,,SCT100,0.00,VWS V14.01,2013-07-08 18:11:00,
2013-07-08 14:16:00,82.9,74.9,30.04,SW,215,6.0,9.0,77,0.00,,SCT100,0.00,VWS V14.01,2013-07-08 18:16:00,
2013-07-08 14:21:00,83.1,75.5,30.04,West,263,4.0,6.0,78,0.00,,SCT100,0.00,VWS V14.01,2013-07-08 18:21:00,
2013-07-08 14:26:00,83.5,74.8,30.04,SW,223,6.0,9.0,75,0.00,,SCT100,0.00,VWS V14.01,2013-07-08 18:26:00,
2013-07-08 14:31:00,83.5,74.3,30.04,SW,217,2.0,7.0,74,0.00,,SCT100,0.00,VWS V14.01,2013-07-08 18:31:00,
2013-07-08 14:37:00,83.2,74.1,30.04,WSW,246,7.0,7.0,74,0.00,,SCT100,0.00,VWS V14.01,2013-07-08 18:37:00,
2013-07-08 14:42:00,82.7,73.6,30.04,SW,225,2.0,6.0,74,0.00,,SCT100,0.00,VWS V14.01,2013-07-08 18:42:00,
2013-07-08 14:47:00,82.6,73.5,30.04,SW,236,0.0,6.0,74,0.00,,SCT100,0.00,VWS V14.01,2013-07-08 18:47:00,
2013-07-08 14:52:00,82.6,74.3,30.04,SW,218,3.0,6.0,76,0.00,,SCT100,0.00,VWS V14.01,2013-07-08 18:52:00,
2013-07-08 14:57:00,82.5,73.8,30.04,SW,224,8.0,8.0,75,0.00,,SCT100,0.00,VWS V14.01,2013-07-08 18:57:00,
2013-07-08 15:03:00,82.5,73.8,30.04,SW,233,3.0,5.0,75,0.00,,SCT100,0.00,VWS V14.01,2013-07-08 19:03:00,
2013-07-08 15:08:00,82.5,74.2,30.04,WSW,238,3.0,10.0,76,0.00,,SCT100,0.00,VWS V14.01,2013-07-08 19:08:00,
2013-07-08 15:13:00,82.9,74.9,30.04,WSW,242,7.0,12.0,77,0.00,,SCT100,0.00,VWS V14.01,2013-07-08 19:13:00,
2013-07-08 15:18:00,83.3,74.2,30.04,West,264,8.0,11.0,74,0.00,,SCT100,0.00,VWS V14.01,2013-07-08 19:18:00,
2013-07-08 15:23:00,83.1,74.0,30.04,WSW,253,5.0,11.0,74,0.00,,SCT100,0.00,VWS V14.01,2013-07-08 19:23:00,
2013-07-08 15:29:00,83.1,74.4,30.03,WSW,250,6.0,9.0,75,0.00,,SCT100,0.00,VWS V14.01,2013-07-08 19:29:00,
2013-07-08 15:34:00,83.2,74.5,30.03,WSW,255,4.0,7.0,75,0.00,,SCT250,0.00,VWS V14.01,2013-07-08 19:34:00,
2013-07-08 15:40:00,83.5,75.1,30.03,WSW,239,4.0,7.0,76,0.00,,SCT250,0.00,VWS V14.01,2013-07-08 19:40:00,
2013-07-08 15:45:00,83.5,73.9,30.03,SW,236,5.0,9.0,73,0.00,,SCT250,0.00,VWS V14.01,2013-07-08 19:45:00,
2013-07-08 15:50:00,83.0,74.3,30.03,WSW,243,5.0,10.0,75,0.00,,SCT250,0.00,VWS V14.01,2013-07-08 19:50:00,
2013-07-08 15:55:00,82.6,74.3,30.03,West,271,5.0,6.0,76,0.00,,SCT250,0.00,VWS V14.01,2013-07-08 19:55:00,
2013-07-08 16:00:00,82.3,74.8,30.03,WNW,287,1.0,5.0,78,0.00,,SCT250,0.00,VWS V14.01,2013-07-08 20:00:00,
2013-07-08 16:05:00,82.4,74.1,30.03,West,273,3.0,6.0,76,0.00,,SCT250,0.00,VWS V14.01,2013-07-08 20:05:00,
2013-07-08 16:10:00,82.9,73.8,30.03,WNW,290,2.0,7.0,74,0.00,,SCT250,0.00,VWS V14.01,2013-07-08 20:10:00,
2013-07-08 16:16:00,83.4,73.4,30.03,West,273,8.0,9.0,72,0.00,,SCT250,0.00,VWS V14.01,2013-07-08 20:16:00,
2013-07-08 16:21:00,83.4,73.8,30.03,WNW,292,4.0,7.0,73,0.00,,SCT250,0.00,VWS V14.01,2013-07-08 20:21:00,
2013-07-08 16:26:00,83.6,73.6,30.02,WNW,283,0.0,3.0,72,0.00,,SCT250,0.00,VWS V14.01,2013-07-08 20:26:00,
2013-07-08 16:32:00,84.0,74.4,30.02,WSW,243,1.0,6.0,73,0.00,,SCT250,0.00,VWS V14.01,2013-07-08 20:32:00,
2013-07-08 16:37:00,84.3,74.3,30.02,West,266,0.0,3.0,72,0.00,,BKN250,0.00,VWS V14.01,2013-07-08 20:37:00,
2013-07-08 16:42:00,84.4,73.1,30.02,SW,233,7.0,7.0,69,0.00,,BKN250,0.00,VWS V14.01,2013-07-08 20:42:00,
2013-07-08 16:47:00,84.3,73.5,30.02,SSW,206,0.0,4.0,70,0.00,,BKN250,0.00,VWS V14.01,2013-07-08 20:47:00,
2013-07-08 16:52:00,84.1,72.8,30.02,WSW,257,0.0,5.0,69,0.00,,BKN250,0.00,VWS V14.01,2013-07-08 20:52:00,
2013-07-08 16:57:00,84.1,73.7,30.02,WNW,282,4.0,5.0,71,0.00,,BKN250,0.00,VWS V14.01,2013-07-08 20:57:00,
2013-07-08 17:02:00,84.1,73.7,30.02,WSW,238,7.0,7.0,71,0.00,,BKN250,0.00,VWS V14.01,2013-07-08 21:02:00,
2013-07-08 17:07:00,84.2,74.2,30.02,WSW,254,5.0,5.0,72,0.00,,BKN250,0.00,VWS V14.01,2013-07-08 21:07:00,
2013-07-08 17:12:00,84.3,73.0,30.02,SW,232,1.0,4.0,69,0.00,,BKN250,0.00,VWS V14.01,2013-07-08 21:12:00,
2013-07-08 17:17:00,84.4,73.1,30.02,SW,222,5.0,6.0,69,0.00,,BKN250,0.00,VWS V14.01,2013-07-08 21:17:00,
2013-07-08 17:22:00,84.3,73.0,30.02,SW,227,5.0,5.0,69,0.00,,BKN250,0.00,VWS V14.01,2013-07-08 21:22:00,
2013-07-08 17:27:00,84.0,72.7,30.01,SW,235,2.0,2.0,69,0.00,,BKN250,0.00,VWS V14.01,2013-07-08 21:27:00,
2013-07-08 17:32:00,83.6,73.6,30.02,WSW,247,4.0,5.0,72,0.00,,SCT250,0.00,VWS V14.01,2013-07-08 21:32:00,
2013-07-08 17:37:00,83.6,74.0,30.01,WSW,250,3.0,6.0,73,0.00,,SCT250,0.00,VWS V14.01,2013-07-08 21:37:00,
2013-07-08 17:43:00,83.5,73.1,30.01,WSW,246,1.0,4.0,71,0.00,,SCT250,0.00,VWS V14.01,2013-07-08 21:43:00,
2013-07-08 17:48:00,83.4,73.4,30.01,WSW,240,3.0,6.0,72,0.00,,SCT250,0.00,VWS V14.01,2013-07-08 21:48:00,
2013-07-08 17:53:00,83.3,74.2,30.01,WSW,240,0.0,3.0,74,0.00,,SCT250,0.00,VWS V14.01,2013-07-08 21:53:00,
2013-07-08 17:58:00,83.4,74.2,30.01,SW,225,1.0,1.0,74,0.00,,SCT250,0.00,VWS V14.01,2013-07-08 21:58:00,
2013-07-08 18:03:00,84.0,74.8,30.00,South,190,0.0,3.0,74,0.00,,SCT250,0.00,VWS V14.01,2013-07-08 22:03:00,
2013-07-08 18:08:00,84.5,74.9,30.01,South,188,2.0,3.0,73,0.00,,SCT250,0.00,VWS V14.01,2013-07-08 22:08:00,
2013-07-08 18:13:00,84.8,75.2,30.01,SSW,213,3.0,5.0,73,0.00,,SCT250,0.00,VWS V14.01,2013-07-08 22:13:00,
2013-07-08 18:19:00,84.9,75.3,30.01,SSE,165,5.0,7.0,73,0.00,,SCT250,0.00,VWS V14.01,2013-07-08 22:19:00,
2013-07-08 18:24:00,84.6,75.0,30.01,SSE,164,5.0,6.0,73,0.00,,SCT250,0.00,VWS V14.01,2013-07-08 22:24:00,
2013-07-08 18:29:00,84.4,74.4,30.01,SSE,161,4.0,5.0,72,0.00,,SCT250,0.00,VWS V14.01,2013-07-08 22:29:00,
2013-07-08 18:34:00,84.3,74.3,30.01,SSE,159,0.0,1.0,72,0.00,,SCT250,0.00,VWS V14.01,2013-07-08 22:34:00,
2013-07-08 18:39:00,84.2,74.2,30.02,SSE,157,4.0,4.0,72,0.00,,SCT250,0.00,VWS V14.01,2013-07-08 22:39:00,
2013-07-08 18:45:00,84.1,74.5,30.02,South,171,1.0,4.0,73,0.00,,SCT250,0.00,VWS V14.01,2013-07-08 22:45:00,
2013-07-08 18:50:00,84.1,74.5,30.02,South,169,0.0,0.0,73,0.00,,SCT250,0.00,VWS V14.01,2013-07-08 22:50:00,
2013-07-08 18:55:00,84.1,74.9,30.02,SSW,212,1.0,5.0,74,0.00,,SCT250,0.00,VWS V14.01,2013-07-08 22:55:00,
2013-07-08 19:00:00,83.9,74.3,30.02,SSW,212,0.0,1.0,73,0.00,,SCT250,0.00,VWS V14.01,2013-07-08 23:00:00,
2013-07-08 19:05:00,83.7,72.9,30.02,SSW,202,3.0,5.0,70,0.00,,SCT250,0.00,VWS V14.01,2013-07-08 23:05:00,
2013-07-08 19:10:00,83.6,73.6,30.03,SW,232,1.0,8.0,72,0.00,,SCT250,0.00,VWS V14.01,2013-07-08 23:10:00,
2013-07-08 19:16:00,83.4,73.8,30.03,SW,217,0.0,1.0,73,0.00,,SCT250,0.00,VWS V14.01,2013-07-08 23:16:00,
2013-07-08 19:21:00,83.1,73.1,30.03,WSW,242,5.0,5.0,72,0.00,,SCT250,0.00,VWS V14.01,2013-07-08 23:21:00,
2013-07-08 19:27:00,82.8,72.9,30.02,SW,236,5.0,6.0,72,0.00,,SCT250,0.00,VWS V14.01,2013-07-08 23:27:00,
2013-07-08 19:32:00,82.5,72.2,30.02,WSW,242,4.0,6.0,71,0.00,,SCT250,0.00,VWS V14.01,2013-07-08 23:32:00,
2013-07-08 19:38:00,82.2,71.9,30.02,SW,233,2.0,4.0,71,0.00,,SCT250,0.00,VWS V14.01,2013-07-08 23:38:00,
2013-07-08 19:43:00,82.0,72.1,30.02,SW,225,0.0,4.0,72,0.00,,SCT250,0.00,VWS V14.01,2013-07-08 23:43:00,
2013-07-08 19:48:00,82.0,72.1,30.03,SW,227,0.0,2.0,72,0.00,,SCT250,0.00,VWS V14.01,2013-07-08 23:48:00,
2013-07-08 19:53:00,82.0,72.1,30.02,SW,236,0.0,4.0,72,0.00,,SCT250,0.00,VWS V14.01,2013-07-08 23:53:00,
2013-07-08 19:58:00,81.9,72.0,30.03,SW,217,2.0,6.0,72,0.00,,SCT250,0.00,VWS V14.01,2013-07-08 23:58:00,
2013-07-08 20:03:00,81.9,72.0,30.03,SSW,210,3.0,8.0,72,0.00,,SCT250,0.00,VWS V14.01,2013-07-09 00:03:00,
2013-07-08 20:08:00,81.8,72.3,30.03,SW,231,0.0,6.0,73,0.00,,SCT250,0.00,VWS V14.01,2013-07-09 00:08:00,
2013-07-08 20:14:00,81.7,72.6,30.03,SW,227,3.0,7.0,74,0.00,,SCT100,0.00,VWS V14.01,2013-07-09 00:14:00,
2013-07-08 20:19:00,81.7,72.6,30.03,SW,221,6.0,6.0,74,0.00,,SCT100,0.00,VWS V14.01,2013-07-09 00:19:00,
2013-07-08 20:24:00,81.7,72.6,30.03,SW,222,7.0,7.0,74,0.00,,SCT100,0.00,VWS V14.01,2013-07-09 00:24:00,
2013-07-08 20:29:00,81.7,72.6,30.03,SSW,206,7.0,7.0,74,0.00,,SCT100,0.00,VWS V14.01,2013-07-09 00:29:00,
2013-07-08 20:34:00,81.6,72.5,30.03,WSW,237,6.0,6.0,74,0.00,,SCT100,0.00,VWS V14.01,2013-07-09 00:34:00,
2013-07-08 20:40:00,81.6,72.9,30.03,SW,226,4.0,6.0,75,0.00,,SCT100,0.00,VWS V14.01,2013-07-09 00:40:00,
2013-07-08 20:45:00,81.4,72.7,30.03,SW,224,3.0,6.0,75,0.00,,SCT100,0.00,VWS V14.01,2013-07-09 00:45:00,
2013-07-08 20:50:00,81.4,73.1,30.04,SW,230,4.0,5.0,76,0.00,,SCT100,0.00,VWS V14.01,2013-07-09 00:50:00,
2013-07-08 20:56:00,81.3,73.0,30.04,SW,217,0.0,5.0,76,0.00,,SCT100,0.00,VWS V14.01,2013-07-09 00:56:00,
2013-07-08 21:01:00,81.4,72.7,30.05,SSW,211,4.0,6.0,75,0.00,,SCT100,0.00,VWS V14.01,2013-07-09 01:01:00,
2013-07-08 21:07:00,81.3,73.0,30.05,SW,215,3.0,4.0,76,0.00,,SCT100,0.00,VWS V14.01,2013-07-09 01:07:00,
2013-07-08 21:12:00,81.3,72.6,30.05,SW,215,5.0,7.0,75,0.00,,SCT100,0.00,VWS V14.01,2013-07-09 01:12:00,
2013-07-08 21:17:00,81.4,72.7,30.05,SW,215,7.0,12.0,75,0.00,,SCT100,0.00,VWS V14.01,2013-07-09 01:17:00,
2013-07-08 21:22:00,81.4,72.7,30.05,SW,216,2.0,7.0,75,0.00,,SCT100,0.00,VWS V14.01,2013-07-09 01:22:00,
2013-07-08 21:27:00,81.4,72.7,30.05,SW,222,4.0,6.0,75,0.00,,SCT100,0.00,VWS V14.01,2013-07-09 01:27:00,
2013-07-08 21:33:00,81.3,73.0,30.05,SSW,204,4.0,5.0,76,0.00,,SCT250,0.00,VWS V14.01,2013-07-09 01:33:00,
2013-07-08 21:38:00,81.2,72.9,30.06,SW,217,2.0,9.0,76,0.00,,SCT250,0.00,VWS V14.01,2013-07-09 01:38:00,
2013-07-08 21:43:00,81.2,73.3,30.06,WSW,240,5.0,9.0,77,0.00,,SCT250,0.00,VWS V14.01,2013-07-09 01:43:00,
2013-07-08 21:48:00,81.2,72.9,30.06,SW,218,6.0,9.0,76,0.00,,SCT250,0.00,VWS V14.01,2013-07-09 01:48:00,
2013-07-08 21:54:00,81.2,73.3,30.06,SW,219,5.0,7.0,77,0.00,,SCT250,0.00,VWS V14.01,2013-07-09 01:54:00,
2013-07-08 21:59:00,81.1,73.6,30.06,SW,217,4.0,5.0,78,0.00,,SCT250,0.00,VWS V14.01,2013-07-09 01:59:00,
2013-07-08 22:04:00,81.0,73.5,30.07,SSW,211,6.0,7.0,78,0.00,,SCT250,0.00,VWS V14.01,2013-07-09 02:04:00,
2013-07-08 22:09:00,81.0,72.7,30.06,SSW,210,4.0,11.0,76,0.00,,SCT250,0.00,VWS V14.01,2013-07-09 02:09:00,
2013-07-08 22:14:00,81.1,73.2,30.07,SW,229,4.0,10.0,77,0.00,,SCT250,0.00,VWS V14.01,2013-07-09 02:14:00,
2013-07-08 22:19:00,81.1,73.6,30.07,SW,225,3.0,10.0,78,0.00,,SCT250,0.00,VWS V14.01,2013-07-09 02:19:00,
2013-07-08 22:24:00,81.0,73.1,30.07,SW,219,4.0,9.0,77,0.00,,SCT250,0.00,VWS V14.01,2013-07-09 02:24:00,
2013-07-08 22:29:00,81.0,72.7,30.07,SSW,208,6.0,10.0,76,0.00,,SCT250,0.00,VWS V14.01,2013-07-09 02:29:00,
2013-07-08 22:34:00,81.1,72.8,30.07,SW,236,4.0,7.0,76,0.00,,SCT250,0.00,VWS V14.01,2013-07-09 02:34:00,
2013-07-08 22:40:00,81.1,72.8,30.06,SW,231,3.0,7.0,76,0.00,,SCT250,0.00,VWS V14.01,2013-07-09 02:40:00,
2013-07-08 22:45:00,80.9,72.6,30.06,SW,220,1.0,6.0,76,0.00,,SCT250,0.00,VWS V14.01,2013-07-09 02:45:00,
2013-07-08 22:50:00,80.8,72.5,30.06,SSW,213,3.0,5.0,76,0.00,,SCT250,0.00,VWS V14.01,2013-07-09 02:50:00,
2013-07-08 22:56:00,80.7,72.4,30.06,SW,226,4.0,4.0,76,0.00,,SCT250,0.00,VWS V14.01,2013-07-09 02:56:00,
2013-07-08 23:01:00,80.5,72.6,30.06,SW,221,3.0,3.0,77,0.00,,SCT250,0.00,VWS V14.01,2013-07-09 03:01:00,
2013-07-08 23:06:00,80.4,72.5,30.06,SW,228,0.0,5.0,77,0.00,,SCT250,0.00,VWS V14.01,2013-07-09 03:06:00,
2013-07-08 23:11:00,80.3,72.4,30.06,SW,215,0.0,3.0,77,0.00,,SCT250,0.00,VWS V14.01,2013-07-09 03:11:00,
2013-07-08 23:16:00,80.2,72.7,30.06,SW,217,5.0,5.0,78,0.00,,SCT250,0.00,VWS V14.01,2013-07-09 03:16:00,
2013-07-08 23:21:00,80.2,72.7,30.06,SSW,213,0.0,2.0,78,0.00,,SCT250,0.00,VWS V14.01,2013-07-09 03:21:00,
2013-07-08 23:27:00,80.2,72.7,30.06,SSW,193,0.0,3.0,78,0.00,,SCT250,0.00,VWS V14.01,2013-07-09 03:27:00,
2013-07-08 23:32:00,80.1,73.0,30.06,SSW,204,3.0,5.0,79,0.00,,SCT250,0.00,VWS V14.01,2013-07-09 03:32:00,
2013-07-08 23:37:00,80.1,73.0,30.06,SW,222,4.0,4.0,79,0.00,,CLR,0.00,VWS V14.01,2013-07-09 03:37:00,
2013-07-08 23:42:00,80.1,73.0,30.06,SW,214,1.0,4.0,79,0.00,,CLR,0.00,VWS V14.01,2013-07-09 03:42:00,
2013-07-08 23:47:00,80.1,73.0,30.06,SSW,202,9.0,9.0,79,0.00,,CLR,0.00,VWS V14.01,2013-07-09 03:47:00,
2013-07-08 23:52:00,80.1,73.0,30.06,SSW,212,1.0,6.0,79,0.00,,CLR,0.00,VWS V14.01,2013-07-09 03:52:00,
2013-07-08 23:58:00,80.0,73.3,30.06,SSW,212,3.0,6.0,80,0.00,,CLR,0.00,VWS V14.01,2013-07-09 03:58:00,